Meteo Giornale » Osservazioni meteo Stati Uniti (USA) » Los Angeles

ore: 09:53 - Osservazioni Meteo Los Angeles
Lat. 33° 56' N Lon. 118° 23' W Alt. 38 metri s.l.m.

foschia America/Los_Angeles

13 °C

Foschia

Temp. 24 Ore

10 °C

21 °C

Nord

5.5 Km/h

Dew point 12 °C

Umidità 93 %

Visibilità  5 Km

Il sole sorge alle ore 06:52

Il sole tramonta alle ore 17:18

Data e Ora Cielo e Fenomeni T °C DP °C Um. % Pres. hPa Vis. km Vento km/h
Oggi h: 09:53 foschia Foschia 13 12 93 1018 5 N 5.5
Oggi h: 09:42 foschia Foschia 13 12 93 1018 5 E/SE 9.3
Oggi h: 09:20 foschia Foschia 13 13 100 1018 2 S 9.3
Oggi h: 09:07 foschia Foschia 12 12 100 1018 2 N 5.5
Oggi h: 08:53 foschia Foschia 12 12 100 1018 5 N 5.5
Oggi h: 08:48 foschia Foschia 12 12 100 1018 5 N 0
Oggi h: 08:29 foschia Foschia 12 12 100 1018 2 N 5.5
Oggi h: 07:53 foschia Foschia 11 10 93 1018 2 N 5.5
Oggi h: 07:50 foschia Foschia 11 10 93 1017 2 N 5.5
Oggi h: 06:53 nebbia Nebbia 10 9 93 1016 2 E 11.1
Oggi h: 05:53 nebbia Nebbia 13 12 93 1016 2 NE 9.3
Oggi h: 04:53 nebbia Nebbia 13 12 93 1016 2 N 5.5
Oggi h: 04:26 nebbia Nebbia 13 12 93 1016 2 N 5.5
Oggi h: 03:53 nebbia Nebbia 13 12 93 1016 2 N 0
Oggi h: 02:53 nebbia Nebbia 13 12 93 1016 2 N 5.5
Oggi h: 01:53 nebbia Nebbia 13 12 93 1016 2 N 5.5
Oggi h: 01:14 nebbia Nebbia 13 11 87 1016 0 N 0
Oggi h: 00:53 nebbia Nebbia 13 11 87 1016 2 E 9.3
Ieri h: 23:53 nebbia Nebbia 13 12 93 1016 2 E/SE 14.8
Ieri h: 23:36 nebbia Nebbia 13 12 93 1016 2 E 13
Ieri h: 23:07 nebbia Nebbia 13 12 93 1016 2 E 11.1
Ieri h: 22:53 nebbia Nebbia 13 12 93 1016 2 E 13
Ieri h: 21:53 nebbia Nebbia 14 12 87 1016 2 SE 9.3
Ieri h: 21:10 nebbia Nebbia 14 12 87 1016 2 E/SE 14.8
Ieri h: 21:05 nuvoloso Nuvoloso 14 12 87 1016 11 E 14.8
Ieri h: 20:53 nuvoloso Nuvoloso 15 12 82 1016 10 SE 9.3
Ieri h: 19:53 nuvoloso Nuvoloso 16 12 77 1015 10 S 7.4
Ieri h: 18:53 poco_nuvoloso Poco Nuvoloso 16 12 77 1015 10 N 0
Ieri h: 17:53 nuvoloso Nuvoloso 16 12 77 1014 10 S/SO 9.3
Ieri h: 16:53 nuvoloso Nuvoloso 17 12 72 1014 10 O/SO 11.1
Ieri h: 15:53 nuvoloso Nuvoloso 18 13 72 1014 10 O/SO 13
Ieri h: 14:53 nuvoloso Nuvoloso 19 13 68 1014 10 O/SO 9.3
Ieri h: 13:53 nuvoloso Nuvoloso 19 13 68 1014 10 O/SO 14.8
Ieri h: 12:53 molto_nuvoloso Molto Nuvoloso 19 12 63 1015 10 O/SO 14.8
Ieri h: 11:53 molto_nuvoloso Molto Nuvoloso 21 10 49 1016 10 O/SO 13
Ieri h: 10:53 nuvoloso Nuvoloso 21 7 40 1017 10 N 5.5
Ieri h: 09:53 nuvoloso Nuvoloso 19 7 45 1017 10 N 0